Time;durP1;ratioP1;P1;durP2;ratioP2;P2;SDS_P1;SDS_P2;PMS_P1;PMS_P2;Temp;Humidity;BMP_temperature;BMP_pressure;BME280_temperature;BME280_humidity;BME280_pressure;Samples;Min_cycle;Max_cycle;Signal;HPM_P1;HPM_P2
2022/05/14 00:00:29;;;;;;;7.63;5.07;;;;;;;;;;5029973;28;20046;-64
2022/05/14 00:02:58;;;;;;;7.97;4.30;;;;;;;;;;5023646;28;20590;-64
2022/05/14 00:05:26;;;;;;;7.00;4.75;;;;;;;;;;5027624;28;20470;-64
2022/05/14 00:07:56;;;;;;;8.82;5.40;;;;;;;;;;5028575;28;20077;-64
2022/05/14 00:10:25;;;;;;;5.88;4.05;;;;;;;;;;5023006;28;20128;-64
2022/05/14 00:15:43;;;;;;;10.82;4.50;;;;;;;;;;5024059;28;20080;-64
2022/05/14 00:18:12;;;;;;;7.63;4.85;;;;;;;;;;5025028;28;20509;-64
2022/05/14 00:20:41;;;;;;;10.30;4.70;;;;;;;;;;5024419;28;20084;-65
2022/05/14 00:23:09;;;;;;;6.95;4.53;;;;;;;;;;5023142;28;20189;-64
2022/05/14 00:25:38;;;;;;;7.97;4.68;;;;;;;;;;5025993;28;20400;-64
2022/05/14 00:28:06;;;;;;;7.55;4.40;;;;;;;;;;5027302;28;20136;-65
2022/05/14 00:30:35;;;;;;;11.18;5.25;;;;;;;;;;5013689;28;20490;-63
2022/05/14 00:33:05;;;;;;;7.93;4.93;;;;;;;;;;5030670;28;20136;-64
2022/05/14 00:35:33;;;;;;;9.50;4.78;;;;;;;;;;5024423;28;20486;-64
2022/05/14 00:38:02;;;;;;;14.10;5.68;;;;;;;;;;5023089;28;20137;-64
2022/05/14 00:40:32;;;;;;;7.18;4.63;;;;;;;;;;5027454;28;20104;-63
2022/05/14 00:43:00;;;;;;;9.52;4.85;;;;;;;;;;5024697;28;20084;-64
2022/05/14 00:45:29;;;;;;;9.35;4.97;;;;;;;;;;5023973;28;20553;-65
2022/05/14 00:47:59;;;;;;;7.65;4.57;;;;;;;;;;5028129;28;20133;-64
2022/05/14 00:50:34;;;;;;;7.15;4.63;;;;;;;;;;5026313;28;20060;-65
2022/05/14 00:53:05;;;;;;;7.70;4.80;;;;;;;;;;5027251;28;20065;-64
2022/05/14 00:55:34;;;;;;;7.25;4.95;;;;;;;;;;5030451;28;20136;-64
2022/05/14 00:58:03;;;;;;;8.10;4.13;;;;;;;;;;5019544;28;20052;-66
2022/05/14 01:00:32;;;;;;;10.00;4.85;;;;;;;;;;5022465;28;20057;-64
2022/05/14 01:03:00;;;;;;;6.50;4.63;;;;;;;;;;5024582;28;20081;-66
2022/05/14 01:05:31;;;;;;;9.18;4.32;;;;;;;;;;5024636;28;20091;-64
2022/05/14 01:08:02;;;;;;;7.13;4.25;;;;;;;;;;5026775;28;20712;-64
2022/05/14 01:10:34;;;;;;;10.10;5.00;;;;;;;;;;5017471;28;20081;-68
2022/05/14 01:13:03;;;;;;;8.23;4.72;;;;;;;;;;5015379;28;20192;-64
2022/05/14 01:15:43;;;;;;;6.47;4.80;;;;;;;;;;5026726;28;20129;-65
2022/05/14 01:18:12;;;;;;;8.23;4.50;;;;;;;;;;5019380;28;20133;-63
2022/05/14 01:20:42;;;;;;;7.15;4.18;;;;;;;;;;5027267;28;20141;-63
2022/05/14 01:23:15;;;;;;;10.75;5.03;;;;;;;;;;5022622;28;20080;-64
2022/05/14 01:28:46;;;;;;;7.40;4.32;;;;;;;;;;5023027;28;20057;-66
2022/05/14 01:31:14;;;;;;;8.10;4.80;;;;;;;;;;5027853;28;20053;-63
2022/05/14 01:33:43;;;;;;;7.10;4.35;;;;;;;;;;5030865;28;20468;-64
2022/05/14 01:36:17;;;;;;;8.13;4.82;;;;;;;;;;5028378;28;20038;-64
2022/05/14 01:38:46;;;;;;;9.02;5.03;;;;;;;;;;5019285;28;20133;-64
2022/05/14 01:41:14;;;;;;;9.85;4.97;;;;;;;;;;5028799;28;20399;-64
2022/05/14 01:43:42;;;;;;;13.63;4.82;;;;;;;;;;5024160;28;20136;-64
2022/05/14 01:46:14;;;;;;;7.80;4.82;;;;;;;;;;5028568;28;20043;-66
2022/05/14 01:48:43;;;;;;;7.78;3.97;;;;;;;;;;5028700;28;20270;-64
2022/05/14 01:51:12;;;;;;;10.40;5.20;;;;;;;;;;5027852;28;20140;-65
2022/05/14 01:53:40;;;;;;;7.38;5.13;;;;;;;;;;5025672;28;20133;-64
2022/05/14 01:56:12;;;;;;;8.15;4.93;;;;;;;;;;5019773;28;20136;-64
2022/05/14 01:58:40;;;;;;;7.25;4.65;;;;;;;;;;5024115;28;20084;-64
2022/05/14 02:01:17;;;;;;;10.48;4.70;;;;;;;;;;5023614;28;20051;-63
2022/05/14 02:03:47;;;;;;;7.45;4.45;;;;;;;;;;5026364;28;20053;-64
2022/05/14 02:06:16;;;;;;;6.65;4.78;;;;;;;;;;5020041;28;20397;-64
2022/05/14 02:08:44;;;;;;;10.00;4.95;;;;;;;;;;5032191;28;20247;-64
2022/05/14 02:11:13;;;;;;;8.13;5.00;;;;;;;;;;5029363;28;20064;-64
2022/05/14 02:13:42;;;;;;;8.25;4.95;;;;;;;;;;5028236;28;20049;-64
2022/05/14 02:16:13;;;;;;;7.32;4.70;;;;;;;;;;5026700;28;20132;-65
2022/05/14 02:18:43;;;;;;;8.55;5.43;;;;;;;;;;5023698;28;20046;-63
2022/05/14 02:21:20;;;;;;;9.45;5.10;;;;;;;;;;5030032;28;20073;-64
2022/05/14 02:23:48;;;;;;;10.05;5.28;;;;;;;;;;5024585;28;20052;-65
2022/05/14 02:26:17;;;;;;;11.35;4.97;;;;;;;;;;5019506;28;20140;-64
2022/05/14 02:28:45;;;;;;;8.43;5.10;;;;;;;;;;5018956;28;20501;-63
2022/05/14 02:31:16;;;;;;;12.10;5.38;;;;;;;;;;5024798;28;20068;-64
2022/05/14 02:33:46;;;;;;;10.65;4.70;;;;;;;;;;5029690;28;20507;-64
2022/05/14 02:36:14;;;;;;;6.93;4.40;;;;;;;;;;5026442;28;20136;-63
2022/05/14 02:38:42;;;;;;;8.48;5.18;;;;;;;;;;5036715;28;20143;-64
2022/05/14 02:41:14;;;;;;;7.35;5.03;;;;;;;;;;5023388;28;20088;-64
2022/05/14 02:43:42;;;;;;;8.05;5.38;;;;;;;;;;5020407;28;20089;-64
2022/05/14 02:46:13;;;;;;;8.23;4.63;;;;;;;;;;5031841;28;20132;-63
2022/05/14 02:48:42;;;;;;;11.93;5.25;;;;;;;;;;5026649;28;20119;-64
2022/05/14 02:51:14;;;;;;;8.98;5.25;;;;;;;;;;5022419;28;20106;-64
2022/05/14 02:53:43;;;;;;;7.28;4.70;;;;;;;;;;5019106;28;20041;-66
2022/05/14 02:56:17;;;;;;;11.00;5.18;;;;;;;;;;5018561;28;20042;-63
2022/05/14 03:01:31;;;;;;;7.07;4.82;;;;;;;;;;5018621;28;20506;-65
2022/05/14 03:04:00;;;;;;;8.40;5.10;;;;;;;;;;5028307;28;20049;-64
2022/05/14 03:06:30;;;;;;;8.80;5.18;;;;;;;;;;5029672;28;20475;-64
2022/05/14 03:08:58;;;;;;;9.90;4.82;;;;;;;;;;5025015;28;20052;-64
2022/05/14 03:11:26;;;;;;;7.65;4.72;;;;;;;;;;5023019;28;20326;-64
2022/05/14 03:13:54;;;;;;;8.55;5.38;;;;;;;;;;5025438;28;20049;-68
2022/05/14 03:16:23;;;;;;;9.07;5.32;;;;;;;;;;5025547;28;20041;-65
2022/05/14 03:18:51;;;;;;;8.73;5.45;;;;;;;;;;5025704;28;20095;-66
2022/05/14 03:21:20;;;;;;;7.60;4.55;;;;;;;;;;5023404;28;20405;-64
2022/05/14 03:23:49;;;;;;;7.80;4.85;;;;;;;;;;5024490;28;20588;-64
2022/05/14 03:26:18;;;;;;;12.43;5.28;;;;;;;;;;5029897;28;20041;-64
2022/05/14 03:28:46;;;;;;;9.27;5.03;;;;;;;;;;5024105;28;20505;-66
2022/05/14 03:31:15;;;;;;;9.20;4.85;;;;;;;;;;5023041;28;20123;-65
2022/05/14 03:33:43;;;;;;;9.70;5.47;;;;;;;;;;5028458;28;20045;-64
2022/05/14 03:36:14;;;;;;;8.82;5.03;;;;;;;;;;5026230;28;20476;-64
2022/05/14 03:38:43;;;;;;;8.02;4.45;;;;;;;;;;5012715;28;20399;-64
2022/05/14 03:41:18;;;;;;;10.32;4.80;;;;;;;;;;5021039;28;20409;-64
2022/05/14 03:43:46;;;;;;;9.98;5.20;;;;;;;;;;5017116;28;20053;-66
2022/05/14 03:46:15;;;;;;;9.05;5.28;;;;;;;;;;5029739;28;20153;-64
2022/05/14 03:48:44;;;;;;;11.65;5.40;;;;;;;;;;5023521;28;20050;-63
2022/05/14 03:51:12;;;;;;;10.27;5.53;;;;;;;;;;5017065;28;20187;-64
2022/05/14 03:53:41;;;;;;;8.32;4.57;;;;;;;;;;5022792;28;20048;-64
2022/05/14 03:56:20;;;;;;;7.35;4.90;;;;;;;;;;5029051;28;20073;-64
2022/05/14 03:58:48;;;;;;;9.30;5.30;;;;;;;;;;5014392;28;20073;-65
2022/05/14 04:01:17;;;;;;;13.20;5.28;;;;;;;;;;5022375;28;20049;-67
2022/05/14 04:03:46;;;;;;;6.70;4.68;;;;;;;;;;5024112;28;20053;-64
2022/05/14 04:06:15;;;;;;;7.10;4.53;;;;;;;;;;5027832;28;20045;-66
2022/05/14 04:08:43;;;;;;;6.60;4.50;;;;;;;;;;5016156;28;20137;-64
2022/05/14 04:11:17;;;;;;;7.47;4.82;;;;;;;;;;5024841;28;20073;-66
2022/05/14 04:13:47;;;;;;;9.43;5.07;;;;;;;;;;5021516;28;20056;-65
2022/05/14 04:16:18;;;;;;;8.15;4.75;;;;;;;;;;5018939;28;20383;-65
2022/05/14 04:18:46;;;;;;;6.85;4.53;;;;;;;;;;5025057;28;20049;-65
2022/05/14 04:21:14;;;;;;;9.15;4.60;;;;;;;;;;5027590;28;20457;-64
2022/05/14 04:23:43;;;;;;;8.27;4.95;;;;;;;;;;5016750;28;20049;-64
2022/05/14 04:26:17;;;;;;;7.88;4.53;;;;;;;;;;5017118;28;20143;-65
2022/05/14 04:28:47;;;;;;;6.22;4.38;;;;;;;;;;5027077;28;20128;-64
2022/05/14 04:31:15;;;;;;;7.50;4.55;;;;;;;;;;5022494;28;20080;-64
2022/05/14 04:33:44;;;;;;;8.25;5.07;;;;;;;;;;5019804;28;20061;-65
2022/05/14 04:36:18;;;;;;;7.28;4.88;;;;;;;;;;5027336;28;20550;-64
2022/05/14 04:38:46;;;;;;;8.45;5.45;;;;;;;;;;5025525;28;20181;-65
2022/05/14 04:41:17;;;;;;;9.25;5.10;;;;;;;;;;5028824;28;20050;-64
2022/05/14 04:43:47;;;;;;;9.10;5.30;;;;;;;;;;5018760;28;20117;-63
2022/05/14 04:46:15;;;;;;;8.98;4.85;;;;;;;;;;5020988;28;20065;-65
2022/05/14 04:48:43;;;;;;;10.90;5.07;;;;;;;;;;5022018;28;20092;-64
2022/05/14 04:51:15;;;;;;;7.75;4.65;;;;;;;;;;5025847;28;20042;-64
2022/05/14 04:53:43;;;;;;;7.72;5.03;;;;;;;;;;5021810;28;20045;-64
2022/05/14 04:56:14;;;;;;;8.65;4.72;;;;;;;;;;5017160;28;20557;-68
2022/05/14 04:58:43;;;;;;;8.60;4.70;;;;;;;;;;5014572;28;20140;-64
2022/05/14 05:01:19;;;;;;;8.85;4.80;;;;;;;;;;5024430;28;20152;-64
2022/05/14 05:03:47;;;;;;;9.23;4.85;;;;;;;;;;5018207;28;20068;-64
2022/05/14 05:06:18;;;;;;;9.07;5.07;;;;;;;;;;5030535;28;20212;-64
2022/05/14 05:08:46;;;;;;;6.95;5.10;;;;;;;;;;5034325;28;20589;-65
2022/05/14 05:11:15;;;;;;;7.28;4.68;;;;;;;;;;5021394;28;20478;-64
2022/05/14 05:13:43;;;;;;;8.20;5.05;;;;;;;;;;5027967;28;20141;-64
2022/05/14 05:16:14;;;;;;;8.50;5.80;;;;;;;;;;5017966;28;20049;-64
2022/05/14 05:18:44;;;;;;;8.48;5.22;;;;;;;;;;5024938;28;20046;-66
2022/05/14 05:21:21;;;;;;;8.15;4.90;;;;;;;;;;5027229;28;20128;-66
2022/05/14 05:23:49;;;;;;;7.60;5.20;;;;;;;;;;5026428;28;20284;-66
2022/05/14 05:26:17;;;;;;;8.93;4.68;;;;;;;;;;5029917;28;20153;-66
2022/05/14 05:28:46;;;;;;;13.40;6.85;;;;;;;;;;5025126;28;20058;-64
2022/05/14 05:31:17;;;;;;;11.23;6.35;;;;;;;;;;5027308;28;20045;-64
2022/05/14 05:33:47;;;;;;;10.30;6.55;;;;;;;;;;5028303;28;20517;-65
2022/05/14 05:36:21;;;;;;;7.43;5.35;;;;;;;;;;5030582;28;20125;-65
2022/05/14 05:38:51;;;;;;;9.63;5.63;;;;;;;;;;5016489;28;20563;-67
2022/05/14 05:41:19;;;;;;;10.90;5.65;;;;;;;;;;5030360;28;20484;-66
2022/05/14 05:43:48;;;;;;;10.38;5.85;;;;;;;;;;5017669;28;20057;-64
2022/05/14 05:46:16;;;;;;;13.23;6.45;;;;;;;;;;5025938;28;20053;-64
2022/05/14 05:48:45;;;;;;;9.20;5.85;;;;;;;;;;5023058;28;20468;-66
2022/05/14 05:51:20;;;;;;;11.02;6.30;;;;;;;;;;5025579;28;20148;-65
2022/05/14 05:56:47;;;;;;;9.70;6.50;;;;;;;;;;5013646;28;20052;-64
2022/05/14 05:59:16;;;;;;;8.93;5.32;;;;;;;;;;5026083;28;20073;-64
2022/05/14 06:01:44;;;;;;;13.43;6.05;;;;;;;;;;5028924;28;20060;-65
2022/05/14 06:04:13;;;;;;;11.30;6.55;;;;;;;;;;5027399;28;20092;-65
2022/05/14 06:06:43;;;;;;;10.50;5.75;;;;;;;;;;5026186;28;20049;-64
2022/05/14 06:09:12;;;;;;;8.38;5.30;;;;;;;;;;5026498;28;20045;-67
2022/05/14 06:11:41;;;;;;;8.95;5.30;;;;;;;;;;5016387;28;20049;-64
2022/05/14 06:14:10;;;;;;;10.77;6.22;;;;;;;;;;5023527;28;20235;-64
2022/05/14 06:16:38;;;;;;;14.18;6.25;;;;;;;;;;5024298;28;20140;-71
2022/05/14 06:19:07;;;;;;;10.27;6.80;;;;;;;;;;5028575;28;20049;-65
2022/05/14 06:21:36;;;;;;;10.95;6.55;;;;;;;;;;5022841;28;20512;-64
2022/05/14 06:24:07;;;;;;;10.60;6.32;;;;;;;;;;5027319;28;20111;-67
2022/05/14 06:26:35;;;;;;;12.85;6.32;;;;;;;;;;5026268;28;20128;-65
2022/05/14 06:29:03;;;;;;;9.65;5.63;;;;;;;;;;5023930;28;20045;-65
2022/05/14 06:31:31;;;;;;;11.13;5.15;;;;;;;;;;5014140;28;20042;-65
2022/05/14 06:34:00;;;;;;;10.38;6.00;;;;;;;;;;5019866;28;20429;-65
2022/05/14 06:36:28;;;;;;;10.30;5.95;;;;;;;;;;5019881;28;20129;-66
2022/05/14 06:38:57;;;;;;;8.52;5.80;;;;;;;;;;5026003;28;20145;-66
2022/05/14 06:41:26;;;;;;;10.52;6.65;;;;;;;;;;5027790;28;20045;-65
2022/05/14 06:43:55;;;;;;;10.23;6.30;;;;;;;;;;5019980;28;20107;-65
2022/05/14 06:46:23;;;;;;;15.57;7.05;;;;;;;;;;5025896;28;20048;-65
2022/05/14 06:48:52;;;;;;;11.18;6.47;;;;;;;;;;5016800;28;20049;-66
2022/05/14 06:51:21;;;;;;;9.10;6.38;;;;;;;;;;5028086;28;20128;-66
2022/05/14 06:53:50;;;;;;;10.57;6.15;;;;;;;;;;5028689;28;20394;-68
2022/05/14 06:56:19;;;;;;;11.57;6.75;;;;;;;;;;5026760;28;20060;-70
2022/05/14 06:58:50;;;;;;;11.75;6.72;;;;;;;;;;5025649;28;20143;-66
2022/05/14 07:01:19;;;;;;;10.32;6.47;;;;;;;;;;5026894;28;20076;-65
2022/05/14 07:06:41;;;;;;;11.30;5.75;;;;;;;;;;5022048;28;20049;-65
2022/05/14 07:09:12;;;;;;;7.18;5.30;;;;;;;;;;5022144;28;20091;-65
2022/05/14 07:11:41;;;;;;;7.72;4.97;;;;;;;;;;5027605;28;20049;-65
2022/05/14 07:14:12;;;;;;;6.80;4.18;;;;;;;;;;5024401;28;20134;-67
2022/05/14 07:16:40;;;;;;;9.95;4.88;;;;;;;;;;5021866;28;20073;-67
2022/05/14 07:19:09;;;;;;;7.97;4.22;;;;;;;;;;5024107;28;20069;-63
2022/05/14 07:21:38;;;;;;;4.80;3.13;;;;;;;;;;5017990;28;20132;-64
2022/05/14 07:24:07;;;;;;;5.05;2.95;;;;;;;;;;5018700;28;20132;-63
2022/05/14 07:26:36;;;;;;;4.28;2.45;;;;;;;;;;5026371;28;20041;-63
2022/05/14 07:29:07;;;;;;;4.97;2.78;;;;;;;;;;5019551;28;20046;-65
2022/05/14 07:31:37;;;;;;;4.72;2.70;;;;;;;;;;5020266;28;20511;-63
2022/05/14 07:34:05;;;;;;;4.80;2.67;;;;;;;;;;5015348;28;20121;-64
2022/05/14 07:36:36;;;;;;;4.07;2.63;;;;;;;;;;5022989;28;20045;-66
2022/05/14 07:39:05;;;;;;;4.93;2.78;;;;;;;;;;5026871;28;20084;-66
2022/05/14 07:41:34;;;;;;;3.13;2.13;;;;;;;;;;5026730;28;20141;-63
2022/05/14 07:44:03;;;;;;;4.65;2.55;;;;;;;;;;5017845;28;20120;-62
2022/05/14 07:46:36;;;;;;;5.65;2.90;;;;;;;;;;5026648;28;20128;-63
2022/05/14 07:49:10;;;;;;;3.42;2.10;;;;;;;;;;5023537;28;20057;-63
2022/05/14 07:51:38;;;;;;;4.65;2.63;;;;;;;;;;5029554;28;20132;-63
2022/05/14 07:54:07;;;;;;;5.78;2.60;;;;;;;;;;5024796;28;20110;-64
2022/05/14 07:56:35;;;;;;;2.67;2.10;;;;;;;;;;5029117;28;20076;-62
2022/05/14 07:59:04;;;;;;;5.63;2.55;;;;;;;;;;5028293;28;20095;-63
2022/05/14 08:01:32;;;;;;;5.15;1.85;;;;;;;;;;5029369;28;20559;-63
2022/05/14 08:04:01;;;;;;;2.83;1.45;;;;;;;;;;5027698;28;20045;-62
2022/05/14 08:06:30;;;;;;;2.53;1.40;;;;;;;;;;5029735;28;20124;-63
2022/05/14 08:08:59;;;;;;;5.47;1.92;;;;;;;;;;5018439;28;20050;-64
2022/05/14 08:11:27;;;;;;;2.35;1.33;;;;;;;;;;5029652;28;20481;-64
2022/05/14 08:13:55;;;;;;;3.13;1.65;;;;;;;;;;5027095;28;20124;-63
2022/05/14 08:16:24;;;;;;;4.65;1.58;;;;;;;;;;5025199;28;20077;-62
2022/05/14 08:18:52;;;;;;;2.50;1.70;;;;;;;;;;5026376;28;20045;-66
2022/05/14 08:26:54;;;;;;;4.68;1.65;;;;;;;;;;5026878;28;20145;-63
2022/05/14 08:29:23;;;;;;;4.50;1.65;;;;;;;;;;5012607;28;20076;-63
2022/05/14 08:31:52;;;;;;;2.05;1.33;;;;;;;;;;5026903;28;20132;-62
2022/05/14 08:34:20;;;;;;;2.88;1.67;;;;;;;;;;5025523;28;20050;-63
2022/05/14 08:36:48;;;;;;;3.58;1.45;;;;;;;;;;5023326;28;20497;-62
2022/05/14 08:39:18;;;;;;;2.42;1.17;;;;;;;;;;5029117;28;20073;-66
2022/05/14 08:41:48;;;;;;;3.03;1.77;;;;;;;;;;5022162;28;20073;-63
2022/05/14 08:44:18;;;;;;;3.05;2.20;;;;;;;;;;5024640;28;20128;-67
2022/05/14 08:46:46;;;;;;;6.95;2.08;;;;;;;;;;5023217;28;20596;-64
2022/05/14 08:49:18;;;;;;;3.30;1.67;;;;;;;;;;5020431;28;20049;-63
2022/05/14 08:51:47;;;;;;;5.93;1.30;;;;;;;;;;5023482;28;20132;-63
2022/05/14 08:54:16;;;;;;;2.63;1.60;;;;;;;;;;5025612;28;20148;-64
2022/05/14 08:56:49;;;;;;;2.30;1.65;;;;;;;;;;5023220;28;20148;-63
2022/05/14 08:59:22;;;;;;;2.75;1.50;;;;;;;;;;5023691;28;20486;-64
2022/05/14 09:01:51;;;;;;;2.00;1.50;;;;;;;;;;5025416;28;20053;-64
2022/05/14 09:04:21;;;;;;;3.72;1.13;;;;;;;;;;5025947;28;20057;-63
2022/05/14 09:06:50;;;;;;;4.28;1.50;;;;;;;;;;5024163;28;20053;-64
2022/05/14 09:09:19;;;;;;;2.78;1.50;;;;;;;;;;5022125;28;20053;-63
2022/05/14 09:11:55;;;;;;;2.97;1.20;;;;;;;;;;5023630;28;20099;-64
2022/05/14 09:14:26;;;;;;;1.88;1.23;;;;;;;;;;5015636;28;20152;-67
2022/05/14 09:17:06;;;;;;;3.60;1.30;;;;;;;;;;5024310;28;20077;-66
2022/05/14 09:19:36;;;;;;;5.43;1.52;;;;;;;;;;5023959;28;20046;-63
2022/05/14 09:22:11;;;;;;;2.67;1.20;;;;;;;;;;5013227;28;20073;-67
2022/05/14 09:24:43;;;;;;;3.17;1.40;;;;;;;;;;5019927;28;20129;-63
2022/05/14 09:27:14;;;;;;;3.08;1.52;;;;;;;;;;5016863;28;20046;-63
2022/05/14 09:29:45;;;;;;;5.82;1.42;;;;;;;;;;5021244;28;20132;-63
2022/05/14 09:32:27;;;;;;;3.88;1.35;;;;;;;;;;5022020;28;20880;-63
2022/05/14 09:35:04;;;;;;;1.60;1.27;;;;;;;;;;5022204;28;20282;-67
2022/05/14 09:37:49;;;;;;;5.05;1.77;;;;;;;;;;5022849;28;20401;-63
2022/05/14 09:40:22;;;;;;;2.92;1.25;;;;;;;;;;5024071;28;20053;-64
2022/05/14 09:42:53;;;;;;;4.18;1.52;;;;;;;;;;5022655;28;20129;-65
2022/05/14 09:45:26;;;;;;;2.03;1.35;;;;;;;;;;5021144;28;20582;-64
2022/05/14 09:47:55;;;;;;;3.15;1.30;;;;;;;;;;5026473;28;20509;-64
2022/05/14 09:50:25;;;;;;;2.25;1.38;;;;;;;;;;5024668;28;20132;-65
2022/05/14 09:52:59;;;;;;;4.13;1.55;;;;;;;;;;5026852;28;20378;-64
2022/05/14 09:55:35;;;;;;;2.85;1.55;;;;;;;;;;5024331;28;20144;-63
2022/05/14 09:58:08;;;;;;;2.08;1.35;;;;;;;;;;5025395;28;20072;-64
2022/05/14 10:00:39;;;;;;;2.72;1.33;;;;;;;;;;5028561;28;20065;-63
2022/05/14 10:03:20;;;;;;;2.45;1.40;;;;;;;;;;5027207;28;20081;-64
2022/05/14 10:05:52;;;;;;;4.22;1.52;;;;;;;;;;5027944;28;20127;-63
2022/05/14 10:08:37;;;;;;;4.18;1.65;;;;;;;;;;5029476;28;20573;-65
2022/05/14 10:11:26;;;;;;;2.75;1.80;;;;;;;;;;5023700;28;20470;-64
2022/05/14 10:14:10;;;;;;;1.40;1.30;;;;;;;;;;5026543;28;20553;-65
2022/05/14 10:16:41;;;;;;;3.33;1.70;;;;;;;;;;5027994;28;20537;-63
2022/05/14 10:19:20;;;;;;;3.97;1.50;;;;;;;;;;5028406;28;20446;-64
2022/05/14 10:21:54;;;;;;;5.45;1.48;;;;;;;;;;5028979;28;20124;-64
2022/05/14 10:27:25;;;;;;;3.50;1.90;;;;;;;;;;5019231;28;20081;-64
2022/05/14 10:30:00;;;;;;;3.47;1.60;;;;;;;;;;5029533;28;20575;-65
2022/05/14 10:32:31;;;;;;;4.57;2.10;;;;;;;;;;5024488;28;20128;-64
2022/05/14 10:35:01;;;;;;;5.80;1.73;;;;;;;;;;5025163;28;20153;-65
2022/05/14 10:37:35;;;;;;;2.90;1.50;;;;;;;;;;5026252;28;20046;-64
2022/05/14 10:40:07;;;;;;;3.15;1.75;;;;;;;;;;5020322;28;20050;-65
2022/05/14 10:42:41;;;;;;;3.45;1.77;;;;;;;;;;5025314;28;20124;-63
2022/05/14 10:45:14;;;;;;;3.90;2.13;;;;;;;;;;5013857;28;20046;-64
2022/05/14 10:47:45;;;;;;;5.00;2.10;;;;;;;;;;5018850;28;20115;-64
2022/05/14 10:50:15;;;;;;;2.08;1.60;;;;;;;;;;5034618;28;20131;-64
2022/05/14 10:52:44;;;;;;;4.28;2.10;;;;;;;;;;5021562;28;20122;-64
2022/05/14 10:55:20;;;;;;;6.78;1.88;;;;;;;;;;5019919;28;20120;-64
2022/05/14 10:57:49;;;;;;;2.38;1.50;;;;;;;;;;5020640;28;20052;-64
2022/05/14 11:00:34;;;;;;;6.05;1.48;;;;;;;;;;5029589;28;20084;-64
2022/05/14 11:03:02;;;;;;;;;;;;;;;;;;5029296;28;20045;-64
2022/05/14 11:05:32;;;;;;;5.65;1.60;;;;;;;;;;5030512;28;19929;-67
2022/05/14 11:08:11;;;;;;;2.42;1.33;;;;;;;;;;5027274;28;20135;-65
2022/05/14 11:10:39;;;;;;;1.73;1.38;;;;;;;;;;5028327;28;20107;-64
2022/05/14 11:13:19;;;;;;;6.10;1.80;;;;;;;;;;5022546;28;20045;-64
2022/05/14 11:15:59;;;;;;;4.45;1.67;;;;;;;;;;5028131;28;20647;-64
2022/05/14 11:18:29;;;;;;;4.55;1.95;;;;;;;;;;5029371;28;20053;-64
2022/05/14 11:20:58;;;;;;;5.32;1.58;;;;;;;;;;5021775;28;20060;-65
2022/05/14 11:23:32;;;;;;;4.40;2.13;;;;;;;;;;5029607;28;20091;-65
2022/05/14 11:26:05;;;;;;;2.40;1.58;;;;;;;;;;5027591;28;20152;-63
2022/05/14 11:28:56;;;;;;;2.72;1.35;;;;;;;;;;5005685;28;20053;-64
2022/05/14 11:31:29;;;;;;;4.15;1.92;;;;;;;;;;5027228;28;20076;-63
2022/05/14 11:33:59;;;;;;;2.53;1.20;;;;;;;;;;5028678;28;20099;-66
2022/05/14 11:36:29;;;;;;;2.95;1.73;;;;;;;;;;5002951;28;20064;-67
2022/05/14 11:39:12;;;;;;;3.70;1.55;;;;;;;;;;5023463;28;20076;-65
2022/05/14 11:41:41;;;;;;;2.70;1.30;;;;;;;;;;5026105;28;20080;-64
2022/05/14 11:44:09;;;;;;;2.67;1.67;;;;;;;;;;5027624;28;20068;-64
2022/05/14 11:46:43;;;;;;;3.30;1.83;;;;;;;;;;5026893;28;20058;-65
2022/05/14 11:49:15;;;;;;;2.55;1.77;;;;;;;;;;5024033;28;20160;-64
2022/05/14 11:51:46;;;;;;;3.55;1.70;;;;;;;;;;5023875;28;20478;-64
2022/05/14 11:54:16;;;;;;;4.03;1.50;;;;;;;;;;5043858;28;20140;-64
2022/05/14 11:56:48;;;;;;;6.32;2.08;;;;;;;;;;5030056;28;20583;-64
2022/05/14 11:59:20;;;;;;;2.35;1.50;;;;;;;;;;5025084;28;20517;-64
2022/05/14 12:01:51;;;;;;;5.28;1.52;;;;;;;;;;5027207;28;20483;-64
2022/05/14 12:04:22;;;;;;;4.75;2.28;;;;;;;;;;5024309;28;20494;-67
2022/05/14 12:07:01;;;;;;;2.28;1.60;;;;;;;;;;5030215;28;20061;-64
2022/05/14 12:09:35;;;;;;;3.25;1.60;;;;;;;;;;5016341;28;20561;-64
2022/05/14 12:12:06;;;;;;;4.20;1.40;;;;;;;;;;5029773;28;20096;-64
2022/05/14 12:14:37;;;;;;;2.67;1.50;;;;;;;;;;5025703;28;20099;-65
2022/05/14 12:17:08;;;;;;;3.97;1.83;;;;;;;;;;5028055;28;20053;-65
2022/05/14 12:19:37;;;;;;;5.47;1.73;;;;;;;;;;5013410;28;20065;-63
2022/05/14 12:22:07;;;;;;;3.05;1.52;;;;;;;;;;5025664;28;20050;-66
2022/05/14 12:24:38;;;;;;;2.70;1.17;;;;;;;;;;5028569;28;20115;-65
2022/05/14 12:27:09;;;;;;;4.25;1.45;;;;;;;;;;5027774;28;20057;-64
2022/05/14 12:29:38;;;;;;;2.50;1.30;;;;;;;;;;5025891;28;20250;-64
2022/05/14 12:34:57;;;;;;;2.83;1.70;;;;;;;;;;5015317;28;20495;-67
2022/05/14 12:37:28;;;;;;;3.63;1.60;;;;;;;;;;5015830;28;20080;-65
2022/05/14 12:39:58;;;;;;;2.13;1.40;;;;;;;;;;5026025;28;20504;-68
2022/05/14 12:42:33;;;;;;;2.88;1.50;;;;;;;;;;5019606;28;20129;-65
2022/05/14 12:45:01;;;;;;;4.65;1.83;;;;;;;;;;5033415;28;20053;-65
2022/05/14 12:47:32;;;;;;;2.30;1.30;;;;;;;;;;5024319;28;20076;-64
2022/05/14 12:50:01;;;;;;;4.97;1.40;;;;;;;;;;5026217;28;20547;-65
2022/05/14 12:52:32;;;;;;;3.35;1.25;;;;;;;;;;5026957;28;20096;-67
2022/05/14 12:55:02;;;;;;;3.13;1.40;;;;;;;;;;5027027;28;20071;-66
2022/05/14 12:57:32;;;;;;;4.45;1.35;;;;;;;;;;5026330;28;20111;-67
2022/05/14 13:00:01;;;;;;;2.45;1.23;;;;;;;;;;5017488;28;20073;-65
2022/05/14 13:02:33;;;;;;;1.55;1.38;;;;;;;;;;5024910;28;20449;-65
2022/05/14 13:05:05;;;;;;;4.07;1.30;;;;;;;;;;5025359;28;20475;-65
2022/05/14 13:07:34;;;;;;;2.10;1.20;;;;;;;;;;5023656;28;20087;-65
2022/05/14 13:10:03;;;;;;;2.53;1.20;;;;;;;;;;5025280;28;20046;-65
2022/05/14 13:12:33;;;;;;;1.10;0.95;;;;;;;;;;5027034;28;20124;-66
2022/05/14 13:15:04;;;;;;;4.22;1.27;;;;;;;;;;5019377;28;20108;-65
2022/05/14 13:17:35;;;;;;;3.83;1.60;;;;;;;;;;5011561;28;20048;-68
2022/05/14 13:20:05;;;;;;;4.18;1.35;;;;;;;;;;5029242;28;20133;-67
2022/05/14 13:22:35;;;;;;;2.47;1.30;;;;;;;;;;5011718;28;20357;-66
2022/05/14 13:25:07;;;;;;;2.25;1.30;;;;;;;;;;5028963;28;20045;-66
2022/05/14 13:27:37;;;;;;;2.38;1.20;;;;;;;;;;5029410;28;20089;-65
2022/05/14 13:30:12;;;;;;;1.58;1.10;;;;;;;;;;5024583;28;20041;-65
2022/05/14 13:32:43;;;;;;;2.17;1.17;;;;;;;;;;5032744;28;20049;-65
2022/05/14 13:37:59;;;;;;;2.10;1.20;;;;;;;;;;5023839;28;20136;-65
2022/05/14 13:40:29;;;;;;;3.08;1.40;;;;;;;;;;5029654;28;20061;-65
2022/05/14 13:42:58;;;;;;;2.70;1.15;;;;;;;;;;5030625;28;20087;-66
2022/05/14 13:45:28;;;;;;;1.90;1.05;;;;;;;;;;5026456;28;20103;-66
2022/05/14 13:47:59;;;;;;;2.10;0.90;;;;;;;;;;5023000;28;20144;-66
2022/05/14 13:50:30;;;;;;;1.70;1.00;;;;;;;;;;5027374;28;20120;-65
2022/05/14 13:52:58;;;;;;;1.40;1.05;;;;;;;;;;5016033;28;20133;-66
2022/05/14 13:55:32;;;;;;;1.35;1.00;;;;;;;;;;5022617;28;20045;-67
2022/05/14 13:58:02;;;;;;;2.67;1.27;;;;;;;;;;5024870;28;20045;-65
2022/05/14 14:00:34;;;;;;;1.85;1.23;;;;;;;;;;5020291;28;20053;-65
2022/05/14 14:03:05;;;;;;;3.97;1.30;;;;;;;;;;5020818;28;20091;-66
2022/05/14 14:05:35;;;;;;;1.58;1.10;;;;;;;;;;5030261;28;20056;-66
2022/05/14 14:08:04;;;;;;;3.65;0.95;;;;;;;;;;5026549;28;20046;-68
2022/05/14 14:10:34;;;;;;;2.15;1.27;;;;;;;;;;5028578;28;20050;-68
2022/05/14 14:13:02;;;;;;;2.50;1.35;;;;;;;;;;5023740;28;20100;-68
2022/05/14 14:15:32;;;;;;;3.85;1.40;;;;;;;;;;5024799;28;20128;-68
2022/05/14 14:18:00;;;;;;;4.10;1.58;;;;;;;;;;5026983;28;20045;-67
2022/05/14 14:20:31;;;;;;;3.08;1.25;;;;;;;;;;5029779;28;20045;-68
2022/05/14 14:23:00;;;;;;;4.32;1.55;;;;;;;;;;5028260;28;20118;-68
2022/05/14 14:25:30;;;;;;;4.05;1.70;;;;;;;;;;5014790;28;20544;-69
2022/05/14 14:27:58;;;;;;;7.82;2.05;;;;;;;;;;5024399;28;20053;-67
2022/05/14 14:30:27;;;;;;;3.60;1.50;;;;;;;;;;5029209;28;20045;-68
2022/05/14 14:32:55;;;;;;;2.25;1.10;;;;;;;;;;5016711;28;20108;-68
2022/05/14 14:35:23;;;;;;;4.65;1.30;;;;;;;;;;5013523;28;20136;-68
2022/05/14 14:37:53;;;;;;;2.13;1.15;;;;;;;;;;5014209;28;20057;-69
2022/05/14 14:40:21;;;;;;;3.38;0.98;;;;;;;;;;5024542;28;20052;-70
2022/05/14 14:42:51;;;;;;;13.00;2.22;;;;;;;;;;5026221;28;20041;-70
2022/05/14 14:45:20;;;;;;;2.28;1.23;;;;;;;;;;5027884;28;20479;-69
2022/05/14 14:47:49;;;;;;;4.70;1.15;;;;;;;;;;5012203;28;20076;-70
2022/05/14 14:50:18;;;;;;;3.80;1.10;;;;;;;;;;5012800;28;20132;-70
2022/05/14 14:52:47;;;;;;;1.90;1.10;;;;;;;;;;5021812;28;20596;-70
2022/05/14 14:55:18;;;;;;;3.35;1.27;;;;;;;;;;5028003;28;20358;-69
2022/05/14 14:57:46;;;;;;;4.03;1.60;;;;;;;;;;5028679;28;20561;-69
2022/05/14 15:00:16;;;;;;;3.33;1.55;;;;;;;;;;5020022;28;20132;-69
2022/05/14 15:02:48;;;;;;;3.08;1.65;;;;;;;;;;5023412;28;20061;-70
2022/05/14 15:05:18;;;;;;;2.75;1.35;;;;;;;;;;5027953;28;20084;-69
2022/05/14 15:07:48;;;;;;;4.43;1.77;;;;;;;;;;5027993;28;20319;-69
2022/05/14 15:10:18;;;;;;;5.88;1.95;;;;;;;;;;5024561;28;20049;-70
2022/05/14 15:12:47;;;;;;;9.52;4.68;;;;;;;;;;5023610;28;20133;-69
2022/05/14 15:15:15;;;;;;;2.95;1.63;;;;;;;;;;5025136;28;20069;-69
2022/05/14 15:17:44;;;;;;;3.72;1.70;;;;;;;;;;5024243;28;20104;-69
2022/05/14 15:20:13;;;;;;;4.05;1.25;;;;;;;;;;5024421;28;20573;-70
2022/05/14 15:22:42;;;;;;;3.97;1.58;;;;;;;;;;5025663;28;20049;-69
2022/05/14 15:25:12;;;;;;;3.97;1.70;;;;;;;;;;5020261;28;20149;-69
2022/05/14 15:27:42;;;;;;;5.40;3.22;;;;;;;;;;5021198;28;20088;-70